Time;durP1;ratioP1;P1;durP2;ratioP2;P2;SDS_P1;SDS_P2;PMS_P1;PMS_P2;Temp;Humidity;BMP_temperature;BMP_pressure;BME280_temperature;BME280_humidity;BME280_pressure;Samples;Min_cycle;Max_cycle;Signal;HPM_P1;HPM_P2
2022/04/24 00:02:23;;;;;;;518.90;176.38;;;11.40;99.90;;;;;;5014821;28;20034;-91
2022/04/24 00:04:49;;;;;;;501.85;170.63;;;11.50;99.90;;;;;;5014333;28;20032;-89
2022/04/24 00:07:15;;;;;;;490.88;167.32;;;11.40;99.90;;;;;;5031270;28;20389;-89
2022/04/24 00:09:41;;;;;;;489.00;169.98;;;11.40;99.90;;;;;;5031819;28;20018;-90
2022/04/24 00:12:09;;;;;;;500.08;169.00;;;11.60;99.90;;;;;;5031548;28;20500;-89
2022/04/24 00:14:35;;;;;;;522.90;181.27;;;11.40;99.90;;;;;;5014280;28;20052;-91
2022/04/24 00:17:01;;;;;;;454.63;156.52;;;12.20;99.90;;;;;;5013670;28;20025;-90
2022/04/24 00:19:28;;;;;;;504.25;176.90;;;11.40;99.90;;;;;;5014101;28;20021;-88
2022/04/24 00:21:55;;;;;;;248.48;104.47;;;11.40;99.90;;;;;;5031896;28;20038;-89
2022/04/24 00:24:24;;;;;;;194.90;90.07;;;11.40;99.90;;;;;;5013903;28;20389;-88
2022/04/24 00:26:50;;;;;;;202.85;91.82;;;11.60;99.90;;;;;;5013258;28;20025;-90
2022/04/24 00:29:16;;;;;;;222.82;95.53;;;11.40;99.90;;;;;;5031142;28;20515;-91
2022/04/24 00:31:42;;;;;;;266.80;107.50;;;11.70;99.90;;;;;;5031164;28;20096;-89
2022/04/24 00:34:07;;;;;;;255.00;105.93;;;11.40;99.90;;;;;;5013236;28;20041;-88
2022/04/24 00:36:33;;;;;;;225.93;97.93;;;11.40;99.90;;;;;;5030937;28;20021;-88
2022/04/24 00:38:59;;;;;;;228.07;97.95;;;11.40;99.90;;;;;;5031426;28;20075;-89
2022/04/24 00:41:25;;;;;;;295.90;114.43;;;11.40;99.90;;;;;;5031418;28;20033;-88
2022/04/24 00:43:54;;;;;;;298.27;118.40;;;11.40;99.90;;;;;;5030989;28;20025;-89
2022/04/24 00:47:00;;;;;;;365.52;132.63;;;11.30;99.90;;;;;;5013155;28;20022;-90
2022/04/24 00:49:26;;;;;;;326.67;123.25;;;11.40;99.90;;;;;;5031439;28;20025;-89
2022/04/24 00:51:53;;;;;;;298.80;117.25;;;;;;;;;;5030682;28;20025;-88
2022/04/24 00:54:19;;;;;;;325.67;122.63;;;11.40;99.90;;;;;;5012959;28;20493;-88
2022/04/24 00:56:45;;;;;;;333.35;123.85;;;11.70;99.90;;;;;;5012805;28;20021;-88
2022/04/24 00:59:13;;;;;;;298.48;116.05;;;11.40;99.90;;;;;;5012948;28;20401;-89
2022/04/24 01:01:40;;;;;;;225.13;97.57;;;11.30;99.90;;;;;;5012592;28;20500;-89
2022/04/24 01:04:07;;;;;;;166.57;73.05;;;11.40;99.90;;;;;;5012772;28;20091;-88
2022/04/24 01:06:36;;;;;;;161.50;76.03;;;11.30;99.90;;;;;;5012740;28;20083;-89
2022/04/24 01:09:19;;;;;;;194.75;87.28;;;11.40;99.90;;;;;;5030693;28;20049;-89
2022/04/24 01:11:47;;;;;;;201.52;86.35;;;11.30;99.90;;;;;;5030502;28;20017;-88
2022/04/24 01:14:16;;;;;;;176.88;78.88;;;;;;;;;;5030680;28;20024;-88
2022/04/24 01:16:42;;;;;;;251.30;104.20;;;11.20;99.90;;;;;;5012932;28;20034;-89
2022/04/24 01:19:08;;;;;;;221.93;96.32;;;11.30;99.90;;;;;;5030030;28;20100;-89
2022/04/24 01:21:34;;;;;;;187.57;85.82;;;11.30;99.90;;;;;;5013048;28;20466;-88
2022/04/24 01:24:04;;;;;;;299.38;113.53;;;11.30;99.90;;;;;;5014473;28;20028;-89
2022/04/24 01:26:30;;;;;;;216.68;94.20;;;11.30;99.90;;;;;;5037315;28;20049;-91
2022/04/24 01:28:56;;;;;;;331.23;120.45;;;11.30;99.90;;;;;;5054514;28;20021;-88
2022/04/24 01:31:22;;;;;;;306.02;114.35;;;11.30;99.90;;;;;;5036197;28;20091;-89
2022/04/24 01:33:47;;;;;;;339.95;124.07;;;11.30;99.90;;;;;;5032116;28;20034;-88
2022/04/24 01:36:13;;;;;;;301.95;115.47;;;11.50;99.90;;;;;;5015775;28;20037;-89
2022/04/24 01:38:40;;;;;;;337.42;123.05;;;11.30;99.90;;;;;;5012622;28;20017;-89
2022/04/24 01:41:06;;;;;;;309.83;115.85;;;11.50;99.90;;;;;;5029503;28;20044;-88
2022/04/24 01:43:33;;;;;;;327.05;120.63;;;11.30;99.90;;;;;;5012914;28;20456;-88
2022/04/24 01:45:58;;;;;;;333.80;123.13;;;11.30;99.90;;;;;;5030656;28;20477;-89
2022/04/24 01:48:24;;;;;;;370.30;132.90;;;11.30;99.90;;;;;;5029783;28;20103;-89
2022/04/24 01:50:54;;;;;;;289.45;110.85;;;11.30;99.90;;;;;;5029794;28;20100;-88
2022/04/24 01:53:19;;;;;;;217.65;95.18;;;11.30;99.90;;;;;;5029579;28;20084;-90
2022/04/24 01:55:46;;;;;;;371.15;134.13;;;11.30;99.90;;;;;;5011928;28;20029;-90
2022/04/24 01:58:11;;;;;;;247.68;100.57;;;11.30;99.90;;;;;;5029649;28;20088;-88
2022/04/24 02:00:37;;;;;;;149.68;76.32;;;11.30;99.90;;;;;;5029605;28;20021;-89
2022/04/24 02:03:03;;;;;;;178.95;85.32;;;11.30;99.90;;;;;;5012666;28;20446;-89
2022/04/24 02:05:29;;;;;;;377.75;133.95;;;11.20;99.90;;;;;;5030195;28;20029;-88
2022/04/24 02:07:55;;;;;;;268.27;107.20;;;11.30;99.90;;;;;;5029549;28;20035;-89
2022/04/24 02:10:21;;;;;;;319.55;122.25;;;11.20;99.90;;;;;;5029524;28;20018;-88
2022/04/24 02:12:46;;;;;;;241.25;100.30;;;11.20;99.90;;;;;;5011823;28;20037;-89
2022/04/24 02:15:12;;;;;;;288.63;108.85;;;11.20;99.90;;;;;;5011619;28;20393;-90
2022/04/24 02:17:38;;;;;;;365.25;129.13;;;11.20;99.90;;;;;;5011579;28;20033;-88
2022/04/24 02:20:04;;;;;;;287.17;109.53;;;11.20;99.90;;;;;;5029981;28;20022;-89
2022/04/24 02:22:32;;;;;;;384.05;132.68;;;12.30;99.90;;;;;;5012208;28;20034;-88
2022/04/24 02:24:58;;;;;;;374.05;131.13;;;11.30;99.90;;;;;;5029353;28;20021;-89
2022/04/24 02:27:23;;;;;;;299.27;114.72;;;11.30;99.90;;;;;;5029369;28;20025;-90
2022/04/24 02:29:49;;;;;;;305.38;113.68;;;11.30;99.90;;;;;;5030614;28;20018;-89
2022/04/24 02:32:15;;;;;;;471.45;152.82;;;11.30;99.90;;;;;;5015392;28;20402;-88
2022/04/24 02:34:40;;;;;;;550.22;181.65;;;11.30;99.90;;;;;;5015440;28;20029;-89
2022/04/24 02:37:06;;;;;;;579.35;197.07;;;11.30;99.90;;;;;;5033075;28;20029;-89
2022/04/24 02:39:31;;;;;;;750.47;252.45;;;11.40;99.90;;;;;;5016077;28;20053;-89
2022/04/24 02:41:57;;;;;;;793.20;270.83;;;11.40;99.90;;;;;;5015238;28;20559;-89
2022/04/24 02:44:23;;;;;;;757.35;256.63;;;11.40;99.90;;;;;;5033066;28;20096;-89
2022/04/24 02:46:49;;;;;;;771.30;261.92;;;11.30;99.90;;;;;;5015241;28;20121;-89
2022/04/24 02:49:14;;;;;;;714.45;242.10;;;11.30;99.90;;;;;;5033163;28;20025;-88
2022/04/24 02:51:40;;;;;;;522.97;169.77;;;11.30;99.90;;;;;;5033013;28;20441;-89
2022/04/24 02:54:06;;;;;;;504.80;163.32;;;11.30;99.90;;;;;;5032999;28;20029;-89
2022/04/24 02:56:32;;;;;;;685.85;229.85;;;11.30;99.90;;;;;;5033528;28;20027;-88
2022/04/24 02:58:57;;;;;;;515.95;163.27;;;11.40;99.90;;;;;;5032622;28;20099;-91
2022/04/24 03:01:23;;;;;;;655.75;219.30;;;11.30;99.90;;;;;;5032590;28;20429;-89
2022/04/24 03:03:49;;;;;;;690.90;238.20;;;11.30;99.90;;;;;;5015008;28;20068;-88
2022/04/24 03:06:18;;;;;;;648.17;222.27;;;11.30;99.90;;;;;;5015144;28;20018;-89
2022/04/24 03:08:46;;;;;;;627.95;216.85;;;11.30;99.90;;;;;;5032710;28;20036;-89
2022/04/24 03:11:12;;;;;;;534.78;177.60;;;11.30;99.90;;;;;;5032803;28;20025;-90
2022/04/24 03:13:38;;;;;;;545.58;183.23;;;11.50;99.90;;;;;;5015016;28;20070;-89
2022/04/24 03:16:03;;;;;;;719.70;251.80;;;11.30;99.90;;;;;;5033306;28;20432;-88
2022/04/24 03:18:29;;;;;;;754.85;261.30;;;11.30;99.90;;;;;;5032506;28;20033;-90
2022/04/24 03:20:55;;;;;;;645.42;219.65;;;11.40;99.90;;;;;;5032484;28;20092;-89
2022/04/24 03:23:21;;;;;;;729.88;254.48;;;11.20;99.90;;;;;;5014657;28;20041;-90
2022/04/24 03:25:46;;;;;;;723.55;255.52;;;11.30;99.90;;;;;;5015026;28;20029;-90
2022/04/24 03:28:12;;;;;;;704.47;244.55;;;11.30;99.90;;;;;;5032602;28;20032;-90
2022/04/24 03:30:38;;;;;;;686.55;238.93;;;11.30;99.90;;;;;;5015059;28;20087;-90
2022/04/24 03:33:04;;;;;;;676.55;234.20;;;11.30;99.90;;;;;;5033212;28;20026;-89
2022/04/24 03:35:29;;;;;;;695.38;242.15;;;11.30;99.90;;;;;;5032212;28;20397;-90
2022/04/24 03:37:57;;;;;;;701.28;248.73;;;11.30;99.90;;;;;;5032469;28;20022;-90
2022/04/24 03:40:23;;;;;;;706.08;248.10;;;11.30;99.90;;;;;;5032361;28;20091;-90
2022/04/24 03:42:49;;;;;;;701.85;245.52;;;11.20;99.90;;;;;;5013470;28;20041;-90
2022/04/24 03:45:17;;;;;;;669.22;232.77;;;11.30;99.90;;;;;;5032281;28;20025;-89
2022/04/24 03:47:43;;;;;;;751.45;260.70;;;9.40;99.90;;;;;;5014415;28;20406;-91
2022/04/24 03:50:09;;;;;;;758.20;265.00;;;11.20;99.90;;;;;;5014794;28;20022;-90
2022/04/24 03:52:35;;;;;;;773.38;268.55;;;11.30;99.90;;;;;;5015228;28;20060;-89
2022/04/24 03:55:02;;;;;;;766.15;266.45;;;11.30;99.90;;;;;;5014450;28;20052;-90
2022/04/24 03:57:27;;;;;;;768.25;269.02;;;11.30;99.90;;;;;;5015205;28;20021;-89
2022/04/24 03:59:53;;;;;;;743.58;260.45;;;11.20;99.90;;;;;;5032649;28;20075;-89
2022/04/24 04:02:19;;;;;;;734.55;257.67;;;11.30;99.90;;;;;;5020568;28;20041;-87
2022/04/24 04:04:44;;;;;;;738.45;258.33;;;11.30;99.90;;;;;;5053951;28;20032;-88
2022/04/24 04:07:10;;;;;;;735.53;259.25;;;11.30;99.90;;;;;;5053769;28;20048;-89
2022/04/24 04:09:36;;;;;;;725.67;257.90;;;11.30;99.90;;;;;;5050445;28;20037;-89
2022/04/24 04:12:02;;;;;;;787.25;277.52;;;11.50;99.90;;;;;;5034374;28;20430;-90
2022/04/24 04:14:28;;;;;;;791.05;275.45;;;11.30;99.90;;;;;;5032293;28;20030;-89
2022/04/24 04:16:54;;;;;;;806.65;284.33;;;11.20;99.90;;;;;;5031604;28;20057;-89
2022/04/24 04:19:19;;;;;;;805.65;289.85;;;11.20;99.90;;;;;;5013565;28;20034;-89
2022/04/24 04:21:45;;;;;;;791.83;278.90;;;11.30;99.90;;;;;;5013698;28;20034;-90
2022/04/24 04:24:12;;;;;;;787.30;277.48;;;11.40;99.90;;;;;;5013546;28;20496;-88
2022/04/24 04:26:38;;;;;;;763.95;270.13;;;11.20;99.90;;;;;;5031994;28;20035;-91
2022/04/24 04:29:04;;;;;;;755.30;273.63;;;11.20;99.90;;;;;;5031063;28;20022;-89
2022/04/24 04:31:30;;;;;;;794.20;287.55;;;11.20;99.90;;;;;;5031018;28;20021;-89
2022/04/24 04:33:56;;;;;;;783.83;280.85;;;11.20;99.90;;;;;;5030684;28;20100;-91
2022/04/24 04:36:21;;;;;;;809.08;292.10;;;11.20;99.90;;;;;;5013471;28;20018;-91
2022/04/24 04:38:47;;;;;;;861.65;313.00;;;11.20;99.90;;;;;;5031190;28;20374;-90
2022/04/24 04:41:13;;;;;;;943.97;330.92;;;11.40;99.90;;;;;;5031017;28;20032;-89
2022/04/24 04:43:38;;;;;;;1019.15;343.52;;;11.20;99.90;;;;;;5031826;28;20444;-90
2022/04/24 04:46:04;;;;;;;94.90;46.75;;;11.20;99.90;;;;;;5013026;28;20025;-89
2022/04/24 04:48:31;;;;;;;88.60;46.38;;;11.20;99.90;;;;;;5030762;28;20033;-88
2022/04/24 04:50:56;;;;;;;100.85;48.35;;;11.20;99.90;;;;;;5012873;28;20482;-88
2022/04/24 04:53:23;;;;;;;110.28;52.17;;;11.20;99.90;;;;;;5030181;28;20473;-88
2022/04/24 04:55:49;;;;;;;95.90;46.97;;;11.20;99.90;;;;;;5030441;28;20469;-88
2022/04/24 04:58:15;;;;;;;522.40;187.52;;;11.30;99.90;;;;;;5030466;28;20060;-88
2022/04/24 05:00:41;;;;;;;92.20;48.03;;;11.20;99.90;;;;;;5031131;28;20025;-88
2022/04/24 05:03:07;;;;;;;99.25;45.97;;;11.20;99.90;;;;;;5012615;28;20041;-89
2022/04/24 05:05:33;;;;;;;99.45;47.72;;;11.20;99.90;;;;;;5012423;28;20619;-88
2022/04/24 05:07:59;;;;;;;110.63;51.35;;;11.30;99.90;;;;;;5030141;28;20059;-89
2022/04/24 05:10:24;;;;;;;109.00;51.55;;;11.20;99.90;;;;;;5030129;28;20021;-89
2022/04/24 05:12:50;;;;;;;113.63;54.25;;;11.20;99.90;;;;;;5030249;28;20013;-88
2022/04/24 05:15:17;;;;;;;110.90;52.80;;;11.20;99.90;;;;;;5029980;28;20485;-89
2022/04/24 05:17:44;;;;;;;102.63;50.70;;;11.20;99.90;;;;;;5013277;28;20052;-88
2022/04/24 05:20:11;;;;;;;101.60;50.17;;;11.20;99.90;;;;;;5012953;28;20029;-89
2022/04/24 05:22:38;;;;;;;90.30;47.43;;;11.30;99.90;;;;;;5012063;28;20516;-89
2022/04/24 05:25:05;;;;;;;98.30;48.10;;;11.30;99.90;;;;;;5030143;28;20178;-89
2022/04/24 05:27:31;;;;;;;105.32;51.75;;;11.30;99.90;;;;;;5030423;28;20030;-88
2022/04/24 05:29:58;;;;;;;112.38;53.55;;;11.30;99.90;;;;;;5012632;28;20108;-89
2022/04/24 05:32:24;;;;;;;109.10;51.78;;;11.30;99.90;;;;;;5010500;28;20083;-90
2022/04/24 05:34:49;;;;;;;91.00;46.13;;;11.30;99.90;;;;;;5016248;28;20026;-89
2022/04/24 05:37:15;;;;;;;89.10;46.58;;;11.30;99.90;;;;;;4992350;28;20129;-88
2022/04/24 05:39:41;;;;;;;128.30;49.58;;;11.40;99.90;;;;;;5006903;28;20067;-90
2022/04/24 05:42:07;;;;;;;101.32;50.60;;;11.40;99.90;;;;;;5011708;28;20129;-90
2022/04/24 05:44:32;;;;;;;95.25;47.45;;;11.40;99.90;;;;;;5029832;28;20048;-89
2022/04/24 05:46:59;;;;;;;96.68;47.55;;;11.40;99.90;;;;;;5023309;28;20039;-91
2022/04/24 05:49:25;;;;;;;104.40;48.47;;;11.40;99.90;;;;;;5027758;28;20021;-90
2022/04/24 05:51:51;;;;;;;94.53;46.60;;;11.60;99.90;;;;;;5025122;28;20029;-89
2022/04/24 05:54:16;;;;;;;529.50;180.65;;;11.40;99.90;;;;;;5011907;28;20017;-89
2022/04/24 05:56:42;;;;;;;104.13;47.35;;;11.50;99.90;;;;;;5012616;28;20109;-89
2022/04/24 05:59:08;;;;;;;710.03;241.85;;;11.50;99.90;;;;;;5013063;28;20556;-90
2022/04/24 06:01:34;;;;;;;98.03;47.83;;;11.50;99.90;;;;;;4992189;28;20482;-89
2022/04/24 06:04:00;;;;;;;103.18;50.83;;;11.60;99.90;;;;;;4992120;28;20034;-90
2022/04/24 06:06:29;;;;;;;113.20;52.35;;;11.60;99.90;;;;;;4992295;28;20026;-89
2022/04/24 06:08:54;;;;;;;108.95;50.92;;;11.80;99.90;;;;;;4992026;28;20065;-88
2022/04/24 06:11:20;;;;;;;113.97;51.33;;;11.60;99.90;;;;;;5009814;28;20521;-88
2022/04/24 06:13:49;;;;;;;111.10;52.08;;;11.70;99.90;;;;;;5010324;28;20386;-91
2022/04/24 06:16:15;;;;;;;99.13;48.63;;;11.80;99.90;;;;;;5010720;28;20029;-90
2022/04/24 06:18:40;;;;;;;97.00;46.97;;;11.60;99.90;;;;;;4992615;28;20071;-88
2022/04/24 06:21:07;;;;;;;102.88;48.10;;;11.70;99.90;;;;;;5009562;28;20117;-89
2022/04/24 06:23:32;;;;;;;104.35;49.30;;;11.70;99.90;;;;;;4996079;28;20042;-88
2022/04/24 06:25:58;;;;;;;102.63;49.65;;;11.70;99.90;;;;;;5014890;28;20029;-87
2022/04/24 06:28:25;;;;;;;89.95;43.67;;;11.80;99.90;;;;;;5012787;28;20037;-90
2022/04/24 06:30:51;;;;;;;90.22;44.05;;;11.80;99.90;;;;;;5013980;28;20059;-89
2022/04/24 06:33:17;;;;;;;100.55;46.90;;;11.80;99.90;;;;;;5031192;28;20048;-89
2022/04/24 06:35:45;;;;;;;589.78;202.07;;;11.70;99.90;;;;;;5000769;28;20449;-88
2022/04/24 06:38:11;;;;;;;899.38;304.70;;;11.80;99.90;;;;;;5005079;28;20013;-87
2022/04/24 06:40:37;;;;;;;644.00;224.43;;;11.70;99.90;;;;;;5047734;28;20047;-89
2022/04/24 06:43:05;;;;;;;961.67;326.73;;;11.80;99.90;;;;;;5035039;28;20056;-88
2022/04/24 06:45:42;;;;;;;1003.75;341.52;;;11.80;99.90;;;;;;5039083;28;20064;-91
2022/04/24 06:48:10;;;;;;;1055.30;363.10;;;11.80;99.90;;;;;;5031141;28;20025;-89
2022/04/24 06:50:38;;;;;;;1189.55;433.95;;;11.80;99.90;;;;;;5011570;28;20028;-87
2022/04/24 06:53:09;;;;;;;89.88;42.72;;;11.80;99.90;;;;;;5027909;28;20032;-90
2022/04/24 06:55:40;;;;;;;101.55;46.53;;;11.80;99.90;;;;;;5019447;28;20038;-92
2022/04/24 06:58:08;;;;;;;102.63;46.90;;;11.80;99.90;;;;;;5015171;28;20060;-88
2022/04/24 07:00:37;;;;;;;98.85;45.47;;;11.90;99.90;;;;;;5016719;28;20460;-89
2022/04/24 07:03:14;;;;;;;280.05;97.43;;;11.90;99.90;;;;;;5021757;28;20497;-84
2022/04/24 07:05:40;;;;;;;94.45;43.65;;;11.90;99.90;;;;;;5001738;28;20029;-85
2022/04/24 07:08:06;;;;;;;100.03;46.05;;;12.00;99.90;;;;;;5014257;28;20413;-86
2022/04/24 07:10:32;;;;;;;519.60;185.70;;;12.00;99.90;;;;;;5017542;28;20024;-88
2022/04/24 07:12:58;;;;;;;1109.03;405.13;;;12.10;99.90;;;;;;5018957;28;20495;-87
2022/04/24 07:15:24;;;;;;;;;;;12.20;99.90;;;;;;5014183;28;20030;-87
2022/04/24 07:17:51;;;;;;;;;;;12.00;99.90;;;;;;5022784;28;20399;-89
2022/04/24 07:20:18;;;;;;;;;;;12.30;99.90;;;;;;5022519;28;20459;-84
2022/04/24 07:22:44;;;;;;;;;;;12.40;99.90;;;;;;5023692;28;25108;-88
2022/04/24 07:25:11;;;;;;;1459.32;475.35;;;12.30;99.90;;;;;;5020672;28;25101;-91
2022/04/24 07:27:37;;;;;;;1324.35;503.98;;;12.50;99.90;;;;;;5017561;28;20029;-88
2022/04/24 07:30:03;;;;;;;102.07;41.78;;;12.70;99.90;;;;;;5019443;28;20034;-85
2022/04/24 07:32:42;;;;;;;74.97;38.33;;;12.60;99.90;;;;;;5017160;28;20092;-91
2022/04/24 07:35:32;;;;;;;901.55;336.58;;;12.70;99.90;;;;;;5018865;28;20072;-87
2022/04/24 07:37:58;;;;;;;1022.33;387.77;;;13.00;99.90;;;;;;5004498;28;20077;-89
2022/04/24 07:40:27;;;;;;;1365.75;570.15;;;13.10;99.90;;;;;;5011242;28;20064;-87
2022/04/24 07:42:59;;;;;;;;;;;13.20;99.90;;;;;;4998409;28;20003;-89
2022/04/24 07:45:35;;;;;;;;;;;13.40;99.90;;;;;;5025960;28;19913;-88
2022/04/24 07:48:02;;;;;;;1418.65;494.60;;;13.60;99.90;;;;;;5010228;28;20853;-89
2022/04/24 07:50:33;;;;;;;;;;;13.60;99.90;;;;;;4997398;28;20067;-87
2022/04/24 07:52:58;;;;;;;;;;;13.80;99.90;;;;;;5031581;28;20217;-88
2022/04/24 07:55:25;;;;;;;1491.77;504.23;;;13.90;99.90;;;;;;5024498;28;20801;-88
2022/04/24 07:57:53;;;;;;;1389.53;534.30;;;14.00;99.90;;;;;;5016322;28;20352;-88
2022/04/24 08:00:21;;;;;;;1430.05;563.53;;;14.10;99.90;;;;;;5012206;28;20026;-89
2022/04/24 08:02:57;;;;;;;1432.85;552.20;;;14.20;99.90;;;;;;5011951;28;19917;-89
2022/04/24 08:05:43;;;;;;;1363.63;523.25;;;14.20;99.90;;;;;;4993695;28;20053;-86
2022/04/24 08:08:14;;;;;;;1456.43;500.15;;;14.30;99.90;;;;;;5010146;28;20389;-87
2022/04/24 08:10:42;;;;;;;1405.40;527.17;;;14.30;99.90;;;;;;5011480;28;20018;-88
2022/04/24 08:13:08;;;;;;;1399.97;529.08;;;14.50;99.90;;;;;;4993454;28;20061;-88
2022/04/24 08:15:35;;;;;;;;;;;14.60;99.90;;;;;;5011235;28;20026;-88
2022/04/24 08:18:01;;;;;;;;;;;14.60;99.90;;;;;;4996978;28;20046;-90
2022/04/24 08:20:27;;;;;;;;;;;14.90;99.90;;;;;;4997688;28;20073;-90
2022/04/24 08:22:55;;;;;;;1579.47;547.70;;;15.00;99.90;;;;;;4997645;28;20428;-89
2022/04/24 08:25:23;;;;;;;47.15;25.80;;;15.10;99.90;;;;;;4996046;28;19905;-90
2022/04/24 08:27:49;;;;;;;;;;;15.00;99.90;;;;;;4996189;28;20036;-90
2022/04/24 08:30:18;;;;;;;;;;;15.20;99.90;;;;;;4991533;28;20403;-89
2022/04/24 08:32:44;;;;;;;;;;;15.10;99.90;;;;;;4992486;28;21056;-89
2022/04/24 08:35:11;;;;;;;;;;;15.30;99.90;;;;;;4994131;28;24088;-88
2022/04/24 08:37:37;;;;;;;;;;;15.50;99.90;;;;;;5009741;28;20746;-89
2022/04/24 08:40:06;;;;;;;;;;;15.80;99.90;;;;;;5008374;28;25188;-88
2022/04/24 08:42:32;;;;;;;;;;;16.00;99.90;;;;;;5009929;28;20047;-89
2022/04/24 08:44:58;;;;;;;;;;;16.20;99.90;;;;;;5008403;28;20377;-89
2022/04/24 08:47:25;;;;;;;;;;;16.10;99.90;;;;;;5009628;28;19948;-88
2022/04/24 08:49:54;;;;;;;;;;;15.90;99.90;;;;;;5009959;28;20733;-88
2022/04/24 08:52:21;;;;;;;;;;;16.00;99.90;;;;;;4993743;28;20407;-88
2022/04/24 08:54:47;;;;;;;;;;;15.60;99.90;;;;;;5009282;28;20229;-91
2022/04/24 08:57:12;;;;;;;;;;;15.80;99.90;;;;;;5009651;28;25117;-91
2022/04/24 08:59:38;;;;;;;;;;;15.80;99.90;;;;;;4993177;28;20046;-89
2022/04/24 09:02:05;;;;;;;;;;;15.90;99.90;;;;;;5008286;28;20439;-89
2022/04/24 09:04:32;;;;;;;;;;;15.90;99.90;;;;;;5009776;28;20428;-89
2022/04/24 09:06:58;;;;;;;;;;;16.10;99.90;;;;;;5010912;28;20118;-90
2022/04/24 09:09:24;;;;;;;;;;;16.00;99.90;;;;;;5011894;28;19988;-89
2022/04/24 09:11:50;;;;;;;23.33;14.27;;;16.10;99.90;;;;;;5014278;28;20262;-91
2022/04/24 09:14:17;;;;;;;25.73;14.25;;;16.10;99.90;;;;;;5026830;28;20009;-87
2022/04/24 09:16:49;;;;;;;21.20;14.05;;;16.20;99.90;;;;;;5030275;28;20061;-85
2022/04/24 09:19:17;;;;;;;26.85;16.50;;;16.10;99.90;;;;;;5033633;28;20082;-87
2022/04/24 09:21:44;;;;;;;473.50;164.77;;;15.90;99.90;;;;;;5001071;28;20057;-86
2022/04/24 09:24:09;;;;;;;845.13;309.73;;;15.90;99.90;;;;;;5011583;28;20380;-87
2022/04/24 09:26:35;;;;;;;750.75;275.05;;;15.90;99.90;;;;;;5010471;28;20480;-89
2022/04/24 09:29:01;;;;;;;645.08;224.77;;;16.00;99.90;;;;;;5010721;28;20452;-92
2022/04/24 09:31:32;;;;;;;714.38;257.10;;;15.90;99.90;;;;;;4993581;28;20033;-92
2022/04/24 09:33:59;;;;;;;1093.93;384.05;;;15.70;99.90;;;;;;4992865;28;20494;-90
2022/04/24 09:36:26;;;;;;;878.80;310.73;;;;;;;;;;5011908;28;20038;-91
2022/04/24 09:38:52;;;;;;;557.17;215.02;;;;;;;;;;5009936;28;20097;-90
2022/04/24 09:41:24;;;;;;;639.92;219.02;;;16.00;99.90;;;;;;5018488;28;20191;-91
2022/04/24 09:43:50;;;;;;;612.85;207.25;;;;;;;;;;5015283;28;20036;-92
2022/04/24 09:46:29;;;;;;;734.97;260.10;;;16.30;99.90;;;;;;5011301;28;20033;-91
2022/04/24 09:49:00;;;;;;;619.95;212.13;;;16.30;99.90;;;;;;5024420;28;20048;-91
2022/04/24 09:51:26;;;;;;;573.05;193.30;;;;;;;;;;5019325;28;20086;-92
2022/04/24 09:53:57;;;;;;;488.15;158.13;;;15.50;99.90;;;;;;5015335;28;20037;-91
2022/04/24 09:56:26;;;;;;;574.15;192.05;;;16.50;99.90;;;;;;5017103;28;20017;-92
2022/04/24 09:58:52;;;;;;;666.63;232.80;;;16.80;99.90;;;;;;5002551;28;20415;-91
2022/04/24 10:01:22;;;;;;;654.30;227.40;;;17.00;99.90;;;;;;4998507;28;20038;-89
2022/04/24 10:03:53;;;;;;;763.55;276.27;;;17.00;99.90;;;;;;5016626;28;20068;-91
2022/04/24 10:06:47;;;;;;;;;;;;;;;;;;;;;
2022/04/24 10:09:16;;;;;;;514.92;198.38;;;17.10;99.90;;;;;;5029581;28;20022;-92
2022/04/24 10:11:42;;;;;;;543.55;182.02;;;17.00;99.90;;;;;;5013042;28;20025;-93
2022/04/24 10:14:31;;;;;;;572.60;186.40;;;17.20;99.90;;;;;;5025101;28;20555;-89
2022/04/24 10:17:15;;;;;;;517.72;169.02;;;17.30;99.90;;;;;;5005851;28;20028;-92
2022/04/24 10:20:15;;;;;;;633.15;210.43;;;17.50;99.90;;;;;;5009354;28;20061;-92
2022/04/24 10:22:47;;;;;;;587.80;195.93;;;17.90;99.90;;;;;;5022752;28;20033;-91
2022/04/24 10:25:15;;;;;;;629.63;214.85;;;17.80;99.90;;;;;;5008974;28;20034;-91
2022/04/24 10:27:47;;;;;;;827.78;314.65;;;17.40;99.90;;;;;;5004826;28;20032;-90
2022/04/24 10:30:23;;;;;;;787.40;279.25;;;16.40;99.90;;;;;;5006122;28;20036;-92
2022/04/24 10:33:20;;;;;;;788.20;274.63;;;17.10;99.90;;;;;;5008267;28;20032;-93
2022/04/24 10:36:00;;;;;;;871.50;330.92;;;17.20;99.90;;;;;;5026019;28;20035;-92
2022/04/24 10:38:28;;;;;;;749.47;274.25;;;16.80;99.90;;;;;;5030824;28;20032;-89
2022/04/24 10:40:57;;;;;;;973.97;382.38;;;16.80;99.90;;;;;;5030029;28;20036;-91
2022/04/24 10:43:23;;;;;;;1116.47;450.60;;;16.80;99.90;;;;;;5029650;28;20438;-93
2022/04/24 10:45:52;;;;;;;874.03;331.23;;;16.70;99.90;;;;;;5012387;28;20049;-91
2022/04/24 10:48:19;;;;;;;931.45;354.42;;;16.60;99.90;;;;;;5012366;28;20036;-90
2022/04/24 10:50:59;;;;;;;990.97;370.02;;;16.70;99.90;;;;;;5013091;28;20028;-91
2022/04/24 10:53:25;;;;;;;1101.80;430.40;;;16.80;99.90;;;;;;5033599;28;20021;-90
2022/04/24 10:56:04;;;;;;;740.03;277.88;;;16.90;99.90;;;;;;5034066;28;20101;-91
2022/04/24 10:58:30;;;;;;;703.63;262.88;;;;;;;;;;5036858;28;20037;-90
2022/04/24 11:01:14;;;;;;;758.22;284.50;;;16.80;99.90;;;;;;5016793;28;20017;-90
2022/04/24 11:03:42;;;;;;;678.33;255.45;;;16.70;99.90;;;;;;5015817;28;20037;-93
2022/04/24 11:06:19;;;;;;;907.90;359.40;;;16.80;99.90;;;;;;5015507;28;20029;-91
2022/04/24 11:08:45;;;;;;;952.20;368.27;;;16.80;99.90;;;;;;5015915;28;20057;-90
2022/04/24 11:11:14;;;;;;;577.10;205.57;;;16.80;99.90;;;;;;5015362;28;20072;-91
2022/04/24 11:13:41;;;;;;;435.35;150.85;;;16.80;99.90;;;;;;5032791;28;20040;-91
2022/04/24 11:16:06;;;;;;;356.38;132.70;;;16.40;99.90;;;;;;5034760;28;20092;-90
2022/04/24 11:18:33;;;;;;;308.85;118.10;;;16.40;99.90;;;;;;5015683;28;20113;-90
2022/04/24 11:21:04;;;;;;;275.75;107.78;;;16.30;99.90;;;;;;5016583;28;20477;-91
2022/04/24 11:23:37;;;;;;;389.15;137.68;;;16.40;99.90;;;;;;5035069;28;20065;-90
2022/04/24 11:26:09;;;;;;;305.17;115.50;;;16.50;99.90;;;;;;5015371;28;20508;-88
2022/04/24 11:28:47;;;;;;;179.27;79.75;;;16.50;99.90;;;;;;5015266;28;20026;-91
2022/04/24 11:31:18;;;;;;;179.20;81.27;;;16.50;99.90;;;;;;5015234;28;20017;-92
2022/04/24 11:33:55;;;;;;;181.57;79.88;;;16.40;99.90;;;;;;5041451;28;20057;-89
2022/04/24 11:36:22;;;;;;;236.23;96.63;;;16.30;99.90;;;;;;5033407;28;20034;-90
2022/04/24 11:38:50;;;;;;;272.10;106.07;;;16.50;99.90;;;;;;5032252;28;20021;-89
2022/04/24 11:41:16;;;;;;;373.95;133.52;;;16.40;99.90;;;;;;5014162;28;20401;-89
2022/04/24 11:43:42;;;;;;;274.30;106.90;;;16.40;99.90;;;;;;5033224;28;20068;-91
2022/04/24 11:51:39;;;;;;;215.07;90.28;;;16.60;99.90;;;;;;5056960;28;20032;-92
2022/04/24 11:54:10;;;;;;;204.30;85.30;;;16.90;99.90;;;;;;5056974;28;20021;-87
2022/04/24 11:56:37;;;;;;;189.80;81.47;;;16.80;99.90;;;;;;5047628;28;20025;-91
2022/04/24 11:59:14;;;;;;;257.30;100.78;;;16.80;99.90;;;;;;5021994;28;20033;-89
2022/04/24 12:01:41;;;;;;;308.88;115.07;;;;;;;;;;5032237;28;20037;-90
2022/04/24 12:04:07;;;;;;;242.88;96.35;;;16.70;99.90;;;;;;5031587;28;20037;-90
2022/04/24 12:06:33;;;;;;;273.35;104.00;;;16.70;99.90;;;;;;5034382;28;20363;-91
2022/04/24 12:09:07;;;;;;;208.48;87.65;;;16.80;99.90;;;;;;5032083;28;20049;-91
2022/04/24 12:11:35;;;;;;;237.38;95.95;;;16.90;99.90;;;;;;5032781;28;20025;-93
2022/04/24 12:14:10;;;;;;;525.90;188.05;;;16.90;99.90;;;;;;5015478;28;20026;-93
2022/04/24 12:16:45;;;;;;;627.95;229.55;;;16.90;99.90;;;;;;5031994;28;20048;-90
2022/04/24 12:19:12;;;;;;;511.95;176.73;;;16.80;99.90;;;;;;5031995;28;20044;-89
2022/04/24 12:21:49;;;;;;;451.23;153.40;;;16.90;99.90;;;;;;5031713;28;20033;-91
2022/04/24 12:24:16;;;;;;;409.63;141.43;;;17.10;99.90;;;;;;5013384;28;20052;-88
2022/04/24 12:26:49;;;;;;;400.60;137.77;;;17.30;99.90;;;;;;5031330;28;20121;-88
2022/04/24 12:29:17;;;;;;;390.63;134.77;;;17.50;99.90;;;;;;5013017;28;20373;-86
2022/04/24 12:31:43;;;;;;;427.20;145.10;;;;;;;;;;5013288;28;20018;-89
2022/04/24 12:34:09;;;;;;;431.65;146.68;;;17.50;99.90;;;;;;5013259;28;20033;-89
2022/04/24 12:36:35;;;;;;;354.52;125.07;;;17.80;99.90;;;;;;5032790;28;20535;-90